Terminal Aerodrome Forecast
Issued by NWS

Home | Current Version | Previous Version | Text Only | Print | Product List | Glossary On
Versions: 1 2 3 4 5 6 7 8 9 10 11 12 13 14 15 16 17 18 19 20 21 22 23 24 25 26 27 28 29 30 31 32
011
FTUS44 KLIX 030521
TAFHUM
TAF
KHUM 030521Z 0306/0406 06011KT P6SM -RA OVC090
      TEMPO 0309/0312 4SM -RA OVC040
     FM031500 09014KT P6SM SCT025 OVC080 PROB30 0315/0321 4SM -RA
      BKN025
     FM032300 11015KT P6SM VCSH OVC035
     FM040300 11013KT P6SM VCSH OVC015=

USA.gov is the U.S. government's official web portal to all federal, state and local government web resources and services.